createdAt,value
2018-05-21T00:00:50.002Z,13.00
2018-05-21T00:03:18.062Z,13.00
2018-05-21T00:05:51.227Z,13.10
2018-05-21T00:08:22.378Z,13.10
2018-05-21T00:10:51.179Z,13.10
2018-05-21T00:13:19.243Z,13.10
2018-05-21T00:15:49.921Z,13.10
2018-05-21T00:18:18.935Z,13.10
2018-05-21T00:20:50.103Z,13.10
2018-05-21T00:23:20.822Z,13.10
2018-05-21T00:25:49.826Z,13.00
2018-05-21T00:28:17.822Z,13.10
2018-05-21T00:30:45.838Z,13.10
2018-05-21T00:33:13.850Z,13.10
2018-05-21T00:35:46.847Z,13.00
2018-05-21T00:38:16.810Z,13.10
2018-05-21T00:40:50.458Z,13.10
2018-05-21T00:43:22.191Z,13.10
2018-05-21T00:45:50.238Z,13.20
2018-05-21T00:48:18.262Z,13.20
2018-05-21T00:50:50.075Z,13.10
2018-05-21T00:53:18.103Z,13.00
2018-05-21T00:55:46.134Z,13.10
2018-05-21T00:58:18.490Z,13.20
2018-05-21T01:00:51.266Z,13.20
2018-05-21T01:03:38.754Z,13.10
2018-05-21T01:06:06.762Z,13.10
2018-05-21T01:08:35.738Z,13.10
2018-05-21T01:11:04.718Z,13.10
2018-05-21T01:13:36.190Z,13.10
2018-05-21T01:16:05.191Z,13.00
2018-05-21T01:18:34.234Z,13.00
2018-05-21T01:21:08.802Z,13.00
2018-05-21T01:23:37.790Z,13.00
2018-05-21T01:26:09.494Z,12.90
2018-05-21T01:28:39.461Z,12.90
2018-05-21T01:31:07.477Z,13.00
2018-05-21T01:33:39.090Z,12.90
2018-05-21T01:36:09.132Z,12.90
2018-05-21T01:38:37.918Z,12.90
2018-05-21T01:41:06.718Z,12.90
2018-05-21T01:43:36.474Z,12.90
2018-05-21T01:46:06.442Z,12.80
2018-05-21T01:48:35.278Z,12.80
2018-05-21T01:51:04.206Z,12.80
2018-05-21T01:53:40.014Z,12.90
2018-05-21T01:56:11.386Z,12.90
2018-05-21T01:58:39.418Z,13.00
2018-05-21T02:01:08.458Z,13.00
2018-05-21T02:03:40.578Z,13.00
2018-05-21T02:06:12.478Z,12.90
2018-05-21T02:08:40.535Z,12.90
2018-05-21T02:11:08.554Z,12.90
2018-05-21T02:13:44.750Z,12.80
2018-05-21T02:16:14.693Z,12.80
2018-05-21T02:18:42.726Z,12.80
2018-05-21T02:21:10.754Z,12.80
2018-05-21T02:23:42.766Z,12.80
2018-05-21T02:26:10.802Z,12.70
2018-05-21T02:28:38.826Z,12.70
2018-05-21T02:31:10.082Z,12.70
2018-05-21T02:33:39.986Z,12.70
2018-05-21T02:36:09.011Z,12.80
2018-05-21T02:38:49.238Z,12.70
2018-05-21T02:41:17.258Z,12.70
2018-05-21T02:43:47.246Z,12.70
2018-05-21T02:46:19.403Z,12.70
2018-05-21T02:48:51.045Z,12.70
2018-05-21T02:51:20.026Z,12.70
2018-05-21T02:53:51.690Z,12.70
2018-05-21T02:56:20.625Z,12.70
2018-05-21T02:58:48.679Z,12.70
2018-05-21T03:01:18.689Z,12.60
2018-05-21T03:03:51.149Z,12.60
2018-05-21T03:06:20.151Z,12.60
2018-05-21T03:08:51.841Z,12.70
2018-05-21T03:11:19.877Z,12.70
2018-05-21T03:13:49.873Z,12.70
2018-05-21T03:16:31.325Z,12.80
2018-05-21T03:19:00.361Z,12.70
2018-05-21T03:21:29.429Z,12.70
2018-05-21T03:24:02.553Z,12.80
2018-05-21T03:26:32.573Z,12.80
2018-05-21T03:29:04.300Z,12.70
2018-05-21T03:31:38.902Z,12.70
2018-05-21T03:34:07.713Z,12.80
2018-05-21T03:36:43.741Z,12.70
2018-05-21T03:39:15.129Z,12.80
2018-05-21T03:41:43.154Z,12.80
2018-05-21T03:44:12.185Z,12.80
2018-05-21T03:46:45.577Z,12.80
2018-05-21T03:49:14.497Z,12.90
2018-05-21T03:51:48.493Z,12.90
2018-05-21T03:54:16.529Z,12.80
2018-05-21T03:56:46.441Z,12.90
2018-05-21T03:59:28.361Z,12.90
2018-05-21T04:02:08.240Z,12.90
2018-05-21T04:04:40.481Z,12.90
2018-05-21T04:07:08.577Z,12.90
2018-05-21T04:09:40.226Z,13.00
2018-05-21T04:12:09.042Z,13.00
2018-05-21T04:14:37.981Z,12.90
2018-05-21T04:17:06.882Z,13.00
2018-05-21T04:19:34.917Z,13.00
2018-05-21T04:22:04.870Z,13.10
2018-05-21T04:24:32.897Z,13.10
2018-05-21T04:27:00.922Z,13.10
2018-05-21T04:29:28.938Z,13.10
2018-05-21T04:31:56.953Z,13.20
2018-05-21T04:34:24.965Z,13.20
2018-05-21T04:36:52.989Z,13.30
2018-05-21T04:39:25.657Z,13.40
2018-05-21T04:41:57.437Z,13.50
2018-05-21T04:44:34.202Z,13.60
2018-05-21T04:47:03.201Z,13.60
2018-05-21T04:49:33.901Z,13.70
2018-05-21T04:52:01.937Z,13.70
2018-05-21T04:54:31.885Z,13.70
2018-05-21T04:57:00.809Z,13.80
2018-05-21T04:59:28.817Z,13.80
2018-05-21T05:01:59.924Z,13.90
2018-05-21T05:04:28.730Z,14.00
2018-05-21T05:07:01.561Z,14.10
2018-05-21T05:09:31.581Z,14.00
2018-05-21T05:11:59.593Z,14.10
2018-05-21T05:14:30.960Z,14.20
2018-05-21T05:17:00.912Z,14.30
2018-05-21T05:19:28.933Z,14.40
2018-05-21T05:22:06.973Z,14.40
2018-05-21T05:24:47.390Z,14.50
2018-05-21T05:27:17.085Z,14.70
2018-05-21T05:29:45.861Z,14.90
2018-05-21T05:32:20.552Z,14.90
2018-05-21T05:34:48.604Z,15.20
2018-05-21T05:37:17.528Z,15.50
2018-05-21T05:39:48.337Z,15.80
2018-05-21T05:42:17.296Z,15.80
2018-05-21T05:44:48.916Z,16.00
2018-05-21T05:47:24.316Z,16.10
2018-05-21T05:49:52.357Z,16.20
2018-05-21T05:52:21.128Z,16.30
2018-05-21T05:54:51.063Z,16.30
2018-05-21T05:57:19.848Z,16.40
2018-05-21T05:59:49.625Z,16.40
2018-05-21T06:02:17.669Z,16.40
2018-05-21T06:04:48.329Z,16.60
2018-05-21T06:07:18.261Z,16.60
2018-05-21T06:09:46.268Z,16.70
2018-05-21T06:12:33.953Z,16.80
2018-05-21T06:15:07.296Z,16.70
2018-05-21T06:17:35.312Z,16.70
2018-05-21T06:20:03.324Z,16.80
2018-05-21T06:22:32.276Z,16.90
2018-05-21T06:25:01.196Z,17.10
2018-05-21T06:27:31.851Z,17.40
2018-05-21T06:30:07.937Z,17.40
2018-05-21T06:32:35.968Z,17.60
2018-05-21T06:35:03.989Z,17.50
2018-05-21T06:37:33.984Z,17.60
2018-05-21T06:40:02.985Z,17.70
2018-05-21T06:42:32.001Z,17.70
2018-05-21T06:45:00.013Z,17.90
2018-05-21T06:47:28.044Z,17.90
2018-05-21T06:49:57.932Z,17.90
2018-05-21T06:52:25.956Z,18.10
2018-05-21T06:54:53.972Z,18.20
2018-05-21T06:57:25.613Z,18.20
2018-05-21T06:59:53.715Z,18.40
2018-05-21T07:02:25.472Z,18.60
2018-05-21T07:04:53.481Z,18.60
2018-05-21T07:07:27.532Z,18.50
2018-05-21T07:09:58.784Z,18.40
2018-05-21T07:12:34.160Z,18.60
2018-05-21T07:15:02.993Z,19.20
2018-05-21T07:17:30.988Z,19.20
2018-05-21T07:20:02.228Z,19.40
2018-05-21T07:22:33.244Z,19.50
2018-05-21T07:25:01.254Z,19.70
2018-05-21T07:27:30.264Z,19.70
2018-05-21T07:30:03.004Z,19.90
2018-05-21T07:32:31.032Z,19.90
2018-05-21T07:34:59.053Z,20.10
2018-05-21T07:37:27.048Z,20.40
2018-05-21T07:40:00.350Z,20.60
2018-05-21T07:42:29.200Z,20.80
2018-05-21T07:44:59.198Z,20.80
2018-05-21T07:47:29.168Z,20.60
2018-05-21T07:49:58.948Z,20.80
2018-05-21T07:52:26.956Z,20.80
2018-05-21T07:54:55.728Z,20.70
2018-05-21T07:57:26.428Z,21.20
2018-05-21T07:59:55.420Z,21.20
2018-05-21T08:02:25.440Z,21.60
2018-05-21T08:04:54.476Z,21.10
2018-05-21T08:07:23.256Z,21.20
2018-05-21T08:09:53.956Z,21.40
2018-05-21T08:12:21.972Z,21.40
2018-05-21T08:14:54.102Z,21.60
2018-05-21T08:17:22.977Z,22.20
2018-05-21T08:19:55.527Z,22.40
2018-05-21T08:22:24.289Z,22.60
2018-05-21T08:24:57.729Z,22.60
2018-05-21T08:27:30.620Z,22.90
2018-05-21T08:30:00.704Z,22.60
2018-05-21T08:32:28.762Z,22.60
2018-05-21T08:34:56.784Z,22.50
2018-05-21T08:37:25.554Z,22.80
2018-05-21T08:39:58.705Z,23.10
2018-05-21T08:42:34.180Z,23.10
2018-05-21T08:45:02.100Z,22.90
2018-05-21T08:47:30.894Z,23.50
2018-05-21T08:49:59.679Z,23.70
2018-05-21T08:52:29.456Z,24.20
2018-05-21T08:54:57.560Z,24.20
2018-05-21T08:57:26.516Z,24.50
2018-05-21T08:59:54.528Z,24.30
2018-05-21T09:02:23.463Z,24.10
2018-05-21T09:04:53.484Z,24.40
2018-05-21T09:07:21.516Z,25.00
2018-05-21T09:09:49.524Z,25.20
2018-05-21T09:12:17.531Z,25.20
2018-05-21T09:14:46.325Z,24.70
2018-05-21T09:17:16.112Z,24.30
2018-05-21T09:19:49.088Z,24.20
2018-05-21T09:22:19.108Z,24.50
2018-05-21T09:24:47.124Z,24.70
2018-05-21T09:27:16.067Z,25.10
2018-05-21T09:29:47.119Z,25.30
2018-05-21T09:32:17.201Z,25.40
2018-05-21T09:34:47.147Z,25.60
2018-05-21T09:37:15.161Z,25.60
2018-05-21T09:39:44.096Z,25.80
2018-05-21T09:42:13.079Z,25.90
2018-05-21T09:44:45.479Z,27.20
2018-05-21T09:47:14.452Z,27.50
2018-05-21T09:49:42.480Z,27.40
2018-05-21T09:52:12.240Z,26.80
2018-05-21T09:54:40.268Z,26.70
2018-05-21T09:57:08.277Z,27.50
2018-05-21T09:59:37.283Z,27.60
2018-05-21T10:02:08.824Z,27.30
2018-05-21T10:04:36.824Z,27.10
2018-05-21T10:07:05.608Z,27.40
2018-05-21T10:09:35.392Z,27.40
2018-05-21T10:12:04.387Z,26.90
2018-05-21T10:14:33.376Z,26.70
2018-05-21T10:17:01.396Z,27.40
2018-05-21T10:19:30.180Z,28.30
2018-05-21T10:21:59.859Z,27.90
2018-05-21T10:24:27.884Z,27.90
2018-05-21T10:26:56.815Z,28.40
2018-05-21T10:29:25.795Z,29.10
2018-05-21T10:31:55.704Z,29.40
2018-05-21T10:34:23.736Z,28.70
2018-05-21T10:36:53.699Z,28.00
2018-05-21T10:39:21.712Z,28.10
2018-05-21T10:41:49.728Z,27.90
2018-05-21T10:44:18.728Z,27.80
2018-05-21T10:46:47.735Z,27.70
2018-05-21T10:49:15.760Z,28.00
2018-05-21T10:51:43.785Z,29.70
2018-05-21T10:54:12.604Z,27.90
2018-05-21T10:56:41.540Z,27.80
2018-05-21T10:59:11.516Z,27.60
2018-05-21T11:01:39.538Z,28.80
2018-05-21T11:04:07.732Z,28.70
2018-05-21T11:06:36.640Z,27.20
2018-05-21T11:09:05.724Z,27.20
2018-05-21T11:11:35.484Z,27.80
2018-05-21T11:14:07.513Z,27.70
2018-05-21T11:16:35.571Z,26.70
2018-05-21T11:19:04.504Z,28.30
2018-05-21T11:21:32.536Z,28.90
2018-05-21T11:24:03.880Z,29.40
2018-05-21T11:26:32.811Z,28.60
2018-05-21T11:29:00.880Z,30.00
2018-05-21T11:31:32.672Z,31.20
2018-05-21T11:34:04.916Z,31.20
2018-05-21T11:36:33.144Z,31.50
2018-05-21T11:39:01.967Z,29.60
2018-05-21T11:41:35.755Z,29.60
2018-05-21T11:44:04.695Z,27.70
2018-05-21T11:46:34.623Z,28.40
2018-05-21T11:49:03.415Z,32.00
2018-05-21T11:51:35.536Z,32.10
2018-05-21T11:54:05.453Z,32.10
2018-05-21T11:56:33.479Z,32.00
2018-05-21T11:59:02.416Z,31.50
2018-05-21T12:01:30.436Z,31.50
2018-05-21T12:04:01.725Z,31.60
2018-05-21T12:06:33.563Z,32.50
2018-05-21T12:09:01.575Z,33.50
2018-05-21T12:11:30.568Z,33.50
2018-05-21T12:13:59.575Z,33.40
2018-05-21T12:16:27.612Z,33.10
2018-05-21T12:18:55.659Z,32.20
2018-05-21T12:21:23.703Z,30.70
2018-05-21T12:23:51.787Z,31.30
2018-05-21T12:26:20.743Z,29.60
2018-05-21T12:28:49.696Z,29.80
2018-05-21T12:31:17.743Z,30.40
2018-05-21T12:33:57.143Z,27.60
2018-05-21T12:36:25.396Z,25.90
2018-05-21T12:38:56.790Z,25.20
2018-05-21T12:41:26.591Z,29.90
2018-05-21T12:43:55.599Z,29.80
2018-05-21T12:46:24.611Z,30.20
2018-05-21T12:48:55.415Z,25.50
2018-05-21T12:51:25.135Z,26.20
2018-05-21T12:54:07.966Z,26.20
2018-05-21T12:59:39.679Z,30.10
2018-05-21T13:05:14.395Z,32.10
2018-05-21T13:07:42.371Z,32.20
2018-05-21T13:10:13.815Z,32.50
2018-05-21T13:12:47.755Z,29.80
2018-05-21T13:15:16.777Z,27.70
2018-05-21T13:17:56.401Z,25.60
2018-05-21T13:20:34.419Z,25.10
2018-05-21T13:23:08.119Z,25.00
2018-05-21T13:25:51.330Z,25.00
2018-05-21T13:28:26.886Z,24.90
2018-05-21T13:30:58.318Z,24.80
2018-05-21T13:33:33.766Z,24.90
2018-05-21T13:36:09.506Z,25.20
2018-05-21T13:38:42.135Z,25.80
2018-05-21T13:41:11.126Z,25.80
2018-05-21T13:43:41.126Z,25.90
2018-05-21T13:46:11.287Z,26.10
2018-05-21T13:48:44.490Z,26.10
2018-05-21T13:51:12.530Z,26.00
2018-05-21T13:53:41.470Z,25.50
2018-05-21T13:56:15.389Z,25.20
2018-05-21T13:58:44.379Z,24.80
2018-05-21T14:01:13.402Z,24.50
2018-05-21T14:03:47.790Z,24.30
2018-05-21T14:06:15.866Z,24.30
2018-05-21T14:08:43.910Z,24.60
2018-05-21T14:11:18.091Z,24.80
2018-05-21T14:13:46.102Z,24.80
2018-05-21T14:16:15.166Z,25.40
2018-05-21T14:18:49.420Z,25.50
2018-05-21T14:21:34.465Z,25.40
2018-05-21T14:24:02.542Z,25.60
2018-05-21T14:26:35.382Z,25.80
2018-05-21T14:29:03.455Z,26.30
2018-05-21T14:31:31.499Z,26.10
2018-05-21T14:34:00.334Z,26.80
2018-05-21T14:36:30.239Z,27.40
2018-05-21T14:38:59.162Z,28.70
2018-05-21T14:41:34.959Z,29.40
2018-05-21T14:44:03.919Z,30.60
2018-05-21T14:46:31.971Z,30.30
2018-05-21T14:51:54.743Z,30.10
2018-05-21T14:54:22.770Z,30.10
2018-05-21T14:56:57.155Z,29.30
2018-05-21T14:59:26.155Z,28.40
2018-05-21T15:01:57.581Z,28.70
2018-05-21T15:04:31.589Z,29.30
2018-05-21T15:07:00.587Z,29.30
2018-05-21T15:09:39.987Z,29.10
2018-05-21T15:12:15.118Z,28.90
2018-05-21T15:14:43.150Z,29.80
2018-05-21T15:17:12.123Z,30.20
2018-05-21T15:19:43.666Z,29.90
2018-05-21T15:22:17.547Z,28.90
2018-05-21T15:24:46.138Z,28.40
2018-05-21T15:27:16.090Z,28.50
2018-05-21T15:29:50.630Z,28.40
2018-05-21T15:32:21.378Z,28.40
2018-05-21T15:34:49.390Z,28.40
2018-05-21T15:37:19.419Z,28.20
2018-05-21T15:39:48.422Z,28.60
2018-05-21T15:42:17.434Z,28.10
2018-05-21T15:44:45.479Z,28.10
2018-05-21T15:47:13.542Z,28.10
2018-05-21T15:49:45.367Z,28.10
2018-05-21T15:52:15.110Z,28.20
2018-05-21T15:54:45.138Z,28.20
2018-05-21T15:57:18.206Z,28.00
2018-05-21T15:59:57.002Z,27.80
2018-05-21T16:02:25.284Z,26.80
2018-05-21T16:04:59.090Z,26.30
2018-05-21T16:07:28.042Z,25.90
2018-05-21T16:09:58.742Z,25.40
2018-05-21T16:12:26.777Z,25.40
2018-05-21T16:14:56.778Z,24.80
2018-05-21T16:17:26.746Z,24.60
2018-05-21T16:20:02.577Z,24.60
2018-05-21T16:22:30.582Z,24.60
2018-05-21T16:25:01.367Z,24.60
2018-05-21T16:27:39.398Z,24.40
2018-05-21T16:33:19.882Z,23.80
2018-05-21T16:35:52.675Z,23.70
2018-05-21T16:38:23.806Z,23.60
2018-05-21T16:40:58.834Z,23.40
2018-05-21T16:43:44.885Z,23.70
2018-05-21T16:46:14.498Z,23.80
2018-05-21T16:48:42.863Z,23.70
2018-05-21T16:51:15.717Z,23.10
2018-05-21T16:53:43.799Z,22.60
2018-05-21T16:56:17.401Z,22.10
2018-05-21T16:58:47.189Z,21.60
2018-05-21T17:01:16.133Z,21.50
2018-05-21T17:03:44.150Z,21.50
2018-05-21T17:06:24.298Z,21.30
2018-05-21T17:08:57.493Z,21.20
2018-05-21T17:11:29.373Z,21.20
2018-05-21T17:14:10.579Z,21.30
2018-05-21T17:16:39.593Z,21.30
2018-05-21T17:19:14.969Z,21.00
2018-05-21T17:21:43.981Z,20.80
2018-05-21T17:24:13.797Z,20.70
2018-05-21T17:26:41.837Z,20.70
2018-05-21T17:29:10.841Z,20.80
2018-05-21T17:31:47.375Z,20.80
2018-05-21T17:34:17.305Z,20.90
2018-05-21T17:36:47.225Z,21.00
2018-05-21T17:39:26.185Z,20.60
2018-05-21T17:42:09.685Z,19.80
2018-05-21T17:44:43.868Z,19.70
2018-05-21T17:47:11.877Z,19.50
2018-05-21T17:49:48.098Z,19.20
2018-05-21T17:52:17.046Z,19.20
2018-05-21T17:54:46.101Z,19.10
2018-05-21T17:57:15.119Z,19.00
2018-05-21T17:59:46.052Z,18.90
2018-05-21T18:02:17.709Z,18.80
2018-05-21T18:04:46.625Z,18.70
2018-05-21T18:07:14.649Z,18.60
2018-05-21T18:09:59.781Z,18.40
2018-05-21T18:12:31.021Z,18.40
2018-05-21T18:14:59.057Z,18.30
2018-05-21T18:17:30.965Z,18.20
2018-05-21T18:19:59.881Z,18.10
2018-05-21T18:22:27.909Z,18.00
2018-05-21T18:24:56.889Z,18.00
2018-05-21T18:27:26.029Z,17.90
2018-05-21T18:29:59.505Z,17.80
2018-05-21T18:32:28.457Z,17.70
2018-05-21T18:34:58.481Z,17.70
2018-05-21T18:37:26.589Z,17.70
2018-05-21T18:39:55.553Z,17.60
2018-05-21T18:42:25.632Z,17.50
2018-05-21T18:45:11.505Z,17.40
2018-05-21T18:47:47.773Z,17.40
2018-05-21T18:50:16.813Z,17.30
2018-05-21T18:52:53.437Z,17.20
2018-05-21T18:55:31.042Z,17.20
2018-05-21T18:58:01.009Z,17.10
2018-05-21T19:00:29.037Z,17.00
2018-05-21T19:02:58.037Z,17.00
2018-05-21T19:05:26.081Z,17.00
2018-05-21T19:07:59.837Z,16.90
2018-05-21T19:10:38.317Z,16.90
2018-05-21T19:13:11.333Z,16.90
2018-05-21T19:15:43.097Z,16.80
2018-05-21T19:18:18.697Z,16.80
2018-05-21T19:21:01.301Z,16.80
2018-05-21T19:23:30.358Z,16.80
2018-05-21T19:26:01.047Z,16.70
2018-05-21T19:28:32.821Z,16.60
2018-05-21T19:31:04.457Z,16.70
2018-05-21T19:33:32.477Z,16.60
2018-05-21T19:36:01.406Z,16.60
2018-05-21T19:38:29.402Z,16.60
2018-05-21T19:40:57.429Z,16.60
2018-05-21T19:43:26.461Z,16.60
2018-05-21T19:45:55.453Z,16.60
2018-05-21T19:48:27.107Z,16.60
2018-05-21T19:50:55.141Z,16.60
2018-05-21T19:53:30.993Z,16.60
2018-05-21T19:56:00.909Z,16.60
2018-05-21T19:58:32.101Z,16.50
2018-05-21T20:01:02.009Z,16.50
2018-05-21T20:03:30.969Z,16.50
2018-05-21T20:06:00.889Z,16.50
2018-05-21T20:08:30.821Z,16.50
2018-05-21T20:11:00.745Z,16.40
2018-05-21T20:13:34.685Z,16.40
2018-05-21T20:16:06.721Z,16.30
2018-05-21T20:18:36.625Z,16.30
2018-05-21T20:21:09.661Z,16.30
2018-05-21T20:23:39.638Z,16.30
2018-05-21T20:26:08.473Z,16.40
2018-05-21T20:28:38.401Z,16.40
2018-05-21T20:31:08.314Z,16.40
2018-05-21T20:33:38.253Z,16.40
2018-05-21T20:36:06.317Z,16.40
2018-05-21T20:38:34.365Z,16.40
2018-05-21T20:41:09.008Z,16.40
2018-05-21T20:43:40.624Z,16.40
2018-05-21T20:46:23.636Z,16.40
2018-05-21T20:48:56.376Z,16.30
2018-05-21T20:51:25.329Z,16.30
2018-05-21T20:53:58.662Z,16.30
2018-05-21T20:56:27.692Z,16.20
2018-05-21T20:59:02.996Z,16.20
2018-05-21T21:01:31.025Z,16.10
2018-05-21T21:03:59.044Z,16.10
2018-05-21T21:06:34.436Z,16.10
2018-05-21T21:09:13.196Z,16.10
2018-05-21T21:11:41.184Z,16.10
2018-05-21T21:14:10.057Z,16.20
2018-05-21T21:16:38.069Z,16.20
2018-05-21T21:19:08.869Z,16.30
2018-05-21T21:21:57.582Z,16.30
2018-05-21T21:24:26.600Z,16.30
2018-05-21T21:27:07.470Z,16.30
2018-05-21T21:29:42.589Z,16.30
2018-05-21T21:32:13.857Z,16.30
2018-05-21T21:34:47.785Z,16.30
2018-05-21T21:37:15.804Z,16.30
2018-05-21T21:39:50.366Z,16.20
2018-05-21T21:42:18.385Z,16.20
2018-05-21T21:44:48.544Z,16.10
2018-05-21T21:47:20.204Z,16.10
2018-05-21T21:52:20.828Z,16.00
2018-05-21T21:54:52.413Z,16.00
2018-05-21T21:57:21.416Z,16.00
2018-05-21T21:59:49.477Z,16.00
2018-05-21T22:02:17.542Z,16.00
2018-05-21T22:04:45.572Z,16.00
2018-05-21T22:07:17.616Z,15.90
2018-05-21T22:09:47.589Z,15.90
2018-05-21T22:12:26.152Z,15.90
2018-05-21T22:14:55.728Z,15.90
2018-05-21T22:17:23.763Z,16.00
2018-05-21T22:19:53.700Z,16.00
2018-05-21T22:22:21.720Z,16.00
2018-05-21T22:24:53.112Z,16.00
2018-05-21T22:27:24.888Z,16.00
2018-05-21T22:29:54.912Z,16.00
2018-05-21T22:32:23.920Z,16.00
2018-05-21T22:34:56.324Z,16.00
2018-05-21T22:37:39.420Z,15.90
2018-05-21T22:40:10.744Z,15.90
2018-05-21T22:42:40.016Z,15.80
2018-05-21T22:45:12.089Z,15.80
2018-05-21T22:47:40.116Z,15.80
2018-05-21T22:50:11.532Z,15.70
2018-05-21T22:52:48.045Z,15.70
2018-05-21T22:55:16.112Z,15.70
2018-05-21T22:57:49.832Z,15.60
2018-05-21T23:00:18.856Z,15.60
2018-05-21T23:02:46.912Z,15.60
2018-05-21T23:05:14.968Z,15.60
2018-05-21T23:07:43.004Z,15.60
2018-05-21T23:10:11.069Z,15.60
2018-05-21T23:12:42.902Z,15.50
2018-05-21T23:15:11.713Z,15.50
2018-05-21T23:17:41.401Z,15.40
2018-05-21T23:20:10.204Z,15.40
2018-05-21T23:22:43.912Z,15.30
2018-05-21T23:25:13.892Z,15.30
2018-05-21T23:27:41.956Z,15.30
2018-05-21T23:30:11.869Z,15.30
2018-05-21T23:32:39.899Z,15.20
2018-05-21T23:35:09.859Z,15.20
2018-05-21T23:37:42.747Z,15.20
2018-05-21T23:40:11.746Z,15.10
2018-05-21T23:42:40.667Z,15.10
2018-05-21T23:45:15.539Z,15.10
2018-05-21T23:47:43.567Z,15.10
2018-05-21T23:50:15.208Z,15.00
2018-05-21T23:52:44.201Z,15.00
2018-05-21T23:55:18.331Z,15.00
2018-05-21T23:57:47.283Z,15.00
